sensor_id;sensor_type;location;lat;lon;timestamp;temperature;humidity
59067;DHT22;44854;50.838;4.438;2024-02-26T00:02:15;8.70;99.90
59067;DHT22;44854;50.838;4.438;2024-02-26T00:04:41;8.60;99.90
59067;DHT22;44854;50.838;4.438;2024-02-26T00:07:07;8.70;99.90
59067;DHT22;44854;50.838;4.438;2024-02-26T00:09:32;8.60;99.90
59067;DHT22;44854;50.838;4.438;2024-02-26T00:12:02;8.60;99.90
59067;DHT22;44854;50.838;4.438;2024-02-26T00:14:32;8.70;99.90
59067;DHT22;44854;50.838;4.438;2024-02-26T00:16:57;8.70;99.90
59067;DHT22;44854;50.838;4.438;2024-02-26T00:19:23;8.60;99.90
59067;DHT22;44854;50.838;4.438;2024-02-26T00:21:49;8.60;99.90
59067;DHT22;44854;50.838;4.438;2024-02-26T00:24:14;8.60;99.90
59067;DHT22;44854;50.838;4.438;2024-02-26T00:26:40;8.50;99.90
59067;DHT22;44854;50.838;4.438;2024-02-26T00:29:06;8.60;99.90
59067;DHT22;44854;50.838;4.438;2024-02-26T00:31:31;8.60;99.90
59067;DHT22;44854;50.838;4.438;2024-02-26T00:33:57;8.60;99.90
59067;DHT22;44854;50.838;4.438;2024-02-26T00:36:23;8.60;99.90
59067;DHT22;44854;50.838;4.438;2024-02-26T00:38:49;8.50;99.90
59067;DHT22;44854;50.838;4.438;2024-02-26T00:41:20;8.60;99.90
59067;DHT22;44854;50.838;4.438;2024-02-26T00:43:46;8.60;99.90
59067;DHT22;44854;50.838;4.438;2024-02-26T00:46:11;8.60;99.90
59067;DHT22;44854;50.838;4.438;2024-02-26T00:48:37;8.60;99.90
59067;DHT22;44854;50.838;4.438;2024-02-26T00:51:04;8.60;99.90
59067;DHT22;44854;50.838;4.438;2024-02-26T00:53:33;8.60;99.90
59067;DHT22;44854;50.838;4.438;2024-02-26T00:55:59;8.60;99.90
59067;DHT22;44854;50.838;4.438;2024-02-26T00:58:25;8.50;99.90
59067;DHT22;44854;50.838;4.438;2024-02-26T01:00:51;8.50;99.90
59067;DHT22;44854;50.838;4.438;2024-02-26T01:03:20;8.50;99.90
59067;DHT22;44854;50.838;4.438;2024-02-26T01:05:45;8.60;99.90
59067;DHT22;44854;50.838;4.438;2024-02-26T01:08:11;8.60;99.90
59067;DHT22;44854;50.838;4.438;2024-02-26T01:10:37;8.60;99.90
59067;DHT22;44854;50.838;4.438;2024-02-26T01:13:03;8.50;99.90
59067;DHT22;44854;50.838;4.438;2024-02-26T01:15:28;8.50;99.90
59067;DHT22;44854;50.838;4.438;2024-02-26T01:17:54;8.40;99.90
59067;DHT22;44854;50.838;4.438;2024-02-26T01:20:20;8.50;99.90
59067;DHT22;44854;50.838;4.438;2024-02-26T01:22:47;8.40;99.90
59067;DHT22;44854;50.838;4.438;2024-02-26T01:25:13;8.40;99.90
59067;DHT22;44854;50.838;4.438;2024-02-26T01:27:39;8.20;99.90
59067;DHT22;44854;50.838;4.438;2024-02-26T01:30:08;8.20;99.90
59067;DHT22;44854;50.838;4.438;2024-02-26T01:32:33;8.30;99.90
59067;DHT22;44854;50.838;4.438;2024-02-26T01:35:01;8.30;99.90
59067;DHT22;44854;50.838;4.438;2024-02-26T01:37:29;8.30;99.90
59067;DHT22;44854;50.838;4.438;2024-02-26T01:39:57;8.30;99.90
59067;DHT22;44854;50.838;4.438;2024-02-26T01:42:23;8.30;99.90
59067;DHT22;44854;50.838;4.438;2024-02-26T01:44:48;8.30;99.90
59067;DHT22;44854;50.838;4.438;2024-02-26T01:47:14;8.20;99.90
59067;DHT22;44854;50.838;4.438;2024-02-26T01:49:40;8.20;99.90
59067;DHT22;44854;50.838;4.438;2024-02-26T01:52:07;8.10;99.90
59067;DHT22;44854;50.838;4.438;2024-02-26T01:54:34;8.10;99.90
59067;DHT22;44854;50.838;4.438;2024-02-26T01:57:00;8.10;99.90
59067;DHT22;44854;50.838;4.438;2024-02-26T01:59:26;8.20;99.90
59067;DHT22;44854;50.838;4.438;2024-02-26T02:01:55;8.20;99.90
59067;DHT22;44854;50.838;4.438;2024-02-26T02:04:23;8.20;99.90
59067;DHT22;44854;50.838;4.438;2024-02-26T02:06:50;8.10;99.90
59067;DHT22;44854;50.838;4.438;2024-02-26T02:09:18;8.10;99.90
59067;DHT22;44854;50.838;4.438;2024-02-26T02:11:43;8.10;99.90
59067;DHT22;44854;50.838;4.438;2024-02-26T02:14:10;8.10;99.90
59067;DHT22;44854;50.838;4.438;2024-02-26T02:16:35;8.10;99.90
59067;DHT22;44854;50.838;4.438;2024-02-26T02:19:01;8.10;99.90
59067;DHT22;44854;50.838;4.438;2024-02-26T02:21:27;8.10;99.90
59067;DHT22;44854;50.838;4.438;2024-02-26T02:23:52;8.10;99.90
59067;DHT22;44854;50.838;4.438;2024-02-26T02:26:18;8.20;99.90
59067;DHT22;44854;50.838;4.438;2024-02-26T02:28:45;8.10;99.90
59067;DHT22;44854;50.838;4.438;2024-02-26T02:31:12;8.00;99.90
59067;DHT22;44854;50.838;4.438;2024-02-26T02:33:38;8.10;99.90
59067;DHT22;44854;50.838;4.438;2024-02-26T02:36:04;8.10;99.90
59067;DHT22;44854;50.838;4.438;2024-02-26T02:38:34;8.00;99.90
59067;DHT22;44854;50.838;4.438;2024-02-26T02:41:00;8.10;99.90
59067;DHT22;44854;50.838;4.438;2024-02-26T02:43:25;8.10;99.90
59067;DHT22;44854;50.838;4.438;2024-02-26T02:45:51;8.10;99.90
59067;DHT22;44854;50.838;4.438;2024-02-26T02:48:17;8.20;99.90
59067;DHT22;44854;50.838;4.438;2024-02-26T02:50:42;8.20;99.90
59067;DHT22;44854;50.838;4.438;2024-02-26T02:53:09;8.20;99.90
59067;DHT22;44854;50.838;4.438;2024-02-26T02:55:35;8.20;99.90
59067;DHT22;44854;50.838;4.438;2024-02-26T02:58:01;8.20;99.90
59067;DHT22;44854;50.838;4.438;2024-02-26T03:00:27;8.10;99.90
59067;DHT22;44854;50.838;4.438;2024-02-26T03:02:52;8.10;99.90
59067;DHT22;44854;50.838;4.438;2024-02-26T03:05:18;8.10;99.90
59067;DHT22;44854;50.838;4.438;2024-02-26T03:07:44;8.20;99.90
59067;DHT22;44854;50.838;4.438;2024-02-26T03:10:10;8.20;99.90
59067;DHT22;44854;50.838;4.438;2024-02-26T03:12:35;8.10;99.90
59067;DHT22;44854;50.838;4.438;2024-02-26T03:15:01;8.10;99.90
59067;DHT22;44854;50.838;4.438;2024-02-26T03:17:31;8.00;99.90
59067;DHT22;44854;50.838;4.438;2024-02-26T03:19:56;8.10;99.90
59067;DHT22;44854;50.838;4.438;2024-02-26T03:22:22;8.00;99.90
59067;DHT22;44854;50.838;4.438;2024-02-26T03:24:48;8.10;99.90
59067;DHT22;44854;50.838;4.438;2024-02-26T03:27:13;8.10;99.90
59067;DHT22;44854;50.838;4.438;2024-02-26T03:29:40;8.00;99.90
59067;DHT22;44854;50.838;4.438;2024-02-26T03:32:06;7.90;99.90
59067;DHT22;44854;50.838;4.438;2024-02-26T03:34:34;7.90;99.90
59067;DHT22;44854;50.838;4.438;2024-02-26T03:37:01;8.10;99.90
59067;DHT22;44854;50.838;4.438;2024-02-26T03:39:27;8.20;99.90
59067;DHT22;44854;50.838;4.438;2024-02-26T03:41:53;8.20;99.90
59067;DHT22;44854;50.838;4.438;2024-02-26T03:44:19;8.20;99.90
59067;DHT22;44854;50.838;4.438;2024-02-26T03:46:45;8.10;99.90
59067;DHT22;44854;50.838;4.438;2024-02-26T03:49:11;8.10;99.90
59067;DHT22;44854;50.838;4.438;2024-02-26T03:51:37;7.90;99.90
59067;DHT22;44854;50.838;4.438;2024-02-26T03:54:03;7.90;99.90
59067;DHT22;44854;50.838;4.438;2024-02-26T03:56:28;7.90;99.90
59067;DHT22;44854;50.838;4.438;2024-02-26T03:58:54;7.80;99.90
59067;DHT22;44854;50.838;4.438;2024-02-26T04:01:20;7.70;99.90
59067;DHT22;44854;50.838;4.438;2024-02-26T04:03:46;7.70;99.90
59067;DHT22;44854;50.838;4.438;2024-02-26T04:06:12;7.80;99.90
59067;DHT22;44854;50.838;4.438;2024-02-26T04:08:41;7.80;99.90
59067;DHT22;44854;50.838;4.438;2024-02-26T04:11:07;7.70;99.90
59067;DHT22;44854;50.838;4.438;2024-02-26T04:13:33;7.60;99.90
59067;DHT22;44854;50.838;4.438;2024-02-26T04:16:00;7.70;99.90
59067;DHT22;44854;50.838;4.438;2024-02-26T04:18:27;7.80;99.90
59067;DHT22;44854;50.838;4.438;2024-02-26T04:20:53;7.80;99.90
59067;DHT22;44854;50.838;4.438;2024-02-26T04:23:19;7.90;99.90
59067;DHT22;44854;50.838;4.438;2024-02-26T04:25:45;7.90;99.90
59067;DHT22;44854;50.838;4.438;2024-02-26T04:28:11;8.00;99.90
59067;DHT22;44854;50.838;4.438;2024-02-26T04:30:38;8.00;99.90
59067;DHT22;44854;50.838;4.438;2024-02-26T04:33:04;8.00;99.90
59067;DHT22;44854;50.838;4.438;2024-02-26T04:35:29;8.00;99.90
59067;DHT22;44854;50.838;4.438;2024-02-26T04:37:55;8.10;99.90
59067;DHT22;44854;50.838;4.438;2024-02-26T04:40:21;8.10;99.90
59067;DHT22;44854;50.838;4.438;2024-02-26T04:42:46;8.00;99.90
59067;DHT22;44854;50.838;4.438;2024-02-26T04:45:12;8.00;99.90
59067;DHT22;44854;50.838;4.438;2024-02-26T04:47:38;7.90;99.90
59067;DHT22;44854;50.838;4.438;2024-02-26T04:50:04;7.90;99.90
59067;DHT22;44854;50.838;4.438;2024-02-26T04:52:30;7.90;99.90
59067;DHT22;44854;50.838;4.438;2024-02-26T04:54:55;7.80;99.90
59067;DHT22;44854;50.838;4.438;2024-02-26T04:57:22;7.80;99.90
59067;DHT22;44854;50.838;4.438;2024-02-26T04:59:47;7.80;99.90
59067;DHT22;44854;50.838;4.438;2024-02-26T05:02:13;7.70;99.90
59067;DHT22;44854;50.838;4.438;2024-02-26T05:04:39;7.80;99.90
59067;DHT22;44854;50.838;4.438;2024-02-26T05:07:05;7.80;99.90
59067;DHT22;44854;50.838;4.438;2024-02-26T05:09:31;7.70;99.90
59067;DHT22;44854;50.838;4.438;2024-02-26T05:11:57;7.70;99.90
59067;DHT22;44854;50.838;4.438;2024-02-26T05:14:23;7.70;99.90
59067;DHT22;44854;50.838;4.438;2024-02-26T05:16:48;7.70;99.90
59067;DHT22;44854;50.838;4.438;2024-02-26T05:19:14;7.80;99.90
59067;DHT22;44854;50.838;4.438;2024-02-26T05:21:40;7.80;99.90
59067;DHT22;44854;50.838;4.438;2024-02-26T05:24:06;7.70;99.90
59067;DHT22;44854;50.838;4.438;2024-02-26T05:26:32;7.80;99.90
59067;DHT22;44854;50.838;4.438;2024-02-26T05:28:57;7.80;99.90
59067;DHT22;44854;50.838;4.438;2024-02-26T05:31:26;7.70;99.90
59067;DHT22;44854;50.838;4.438;2024-02-26T05:33:52;7.80;99.90
59067;DHT22;44854;50.838;4.438;2024-02-26T05:36:20;7.70;99.90
59067;DHT22;44854;50.838;4.438;2024-02-26T05:38:47;7.70;99.90
59067;DHT22;44854;50.838;4.438;2024-02-26T05:41:17;7.60;99.90
59067;DHT22;44854;50.838;4.438;2024-02-26T05:43:49;7.60;99.90
59067;DHT22;44854;50.838;4.438;2024-02-26T05:46:17;7.60;99.90
59067;DHT22;44854;50.838;4.438;2024-02-26T05:48:44;7.50;99.90
59067;DHT22;44854;50.838;4.438;2024-02-26T05:51:09;7.30;99.90
59067;DHT22;44854;50.838;4.438;2024-02-26T05:53:35;7.40;99.90
59067;DHT22;44854;50.838;4.438;2024-02-26T05:56:01;7.40;99.90
59067;DHT22;44854;50.838;4.438;2024-02-26T05:58:26;7.40;99.90
59067;DHT22;44854;50.838;4.438;2024-02-26T06:00:52;7.50;99.90
59067;DHT22;44854;50.838;4.438;2024-02-26T06:03:18;7.50;99.90
59067;DHT22;44854;50.838;4.438;2024-02-26T06:05:43;7.50;99.90
59067;DHT22;44854;50.838;4.438;2024-02-26T06:08:09;7.50;99.90
59067;DHT22;44854;50.838;4.438;2024-02-26T06:10:34;7.60;99.90
59067;DHT22;44854;50.838;4.438;2024-02-26T06:13:00;7.50;99.90
59067;DHT22;44854;50.838;4.438;2024-02-26T06:15:26;7.40;99.90
59067;DHT22;44854;50.838;4.438;2024-02-26T06:17:51;7.50;99.90
59067;DHT22;44854;50.838;4.438;2024-02-26T06:20:17;7.50;99.90
59067;DHT22;44854;50.838;4.438;2024-02-26T06:22:43;7.60;99.90
59067;DHT22;44854;50.838;4.438;2024-02-26T06:25:08;7.60;99.90
59067;DHT22;44854;50.838;4.438;2024-02-26T06:27:35;7.50;99.90
59067;DHT22;44854;50.838;4.438;2024-02-26T06:30:00;7.50;99.90
59067;DHT22;44854;50.838;4.438;2024-02-26T06:32:26;7.40;99.90
59067;DHT22;44854;50.838;4.438;2024-02-26T06:34:55;7.40;99.90
59067;DHT22;44854;50.838;4.438;2024-02-26T06:37:21;7.40;99.90
59067;DHT22;44854;50.838;4.438;2024-02-26T06:39:47;7.40;99.90
59067;DHT22;44854;50.838;4.438;2024-02-26T06:42:12;7.40;99.90
59067;DHT22;44854;50.838;4.438;2024-02-26T06:44:38;7.50;99.90
59067;DHT22;44854;50.838;4.438;2024-02-26T06:47:04;7.40;99.90
59067;DHT22;44854;50.838;4.438;2024-02-26T06:49:30;7.40;99.90
59067;DHT22;44854;50.838;4.438;2024-02-26T06:51:55;7.40;99.90
59067;DHT22;44854;50.838;4.438;2024-02-26T06:54:21;7.30;99.90
59067;DHT22;44854;50.838;4.438;2024-02-26T06:56:47;7.30;99.90
59067;DHT22;44854;50.838;4.438;2024-02-26T06:59:13;7.40;99.90
59067;DHT22;44854;50.838;4.438;2024-02-26T07:01:41;7.30;99.90
59067;DHT22;44854;50.838;4.438;2024-02-26T07:04:06;7.40;99.90
59067;DHT22;44854;50.838;4.438;2024-02-26T07:06:32;7.50;99.90
59067;DHT22;44854;50.838;4.438;2024-02-26T07:08:59;7.40;99.90
59067;DHT22;44854;50.838;4.438;2024-02-26T07:11:24;7.40;99.90
59067;DHT22;44854;50.838;4.438;2024-02-26T07:13:50;7.40;99.90
59067;DHT22;44854;50.838;4.438;2024-02-26T07:16:16;7.50;99.90
59067;DHT22;44854;50.838;4.438;2024-02-26T07:18:42;7.40;99.90
59067;DHT22;44854;50.838;4.438;2024-02-26T07:21:09;7.40;99.90
59067;DHT22;44854;50.838;4.438;2024-02-26T07:23:34;7.40;99.90
59067;DHT22;44854;50.838;4.438;2024-02-26T07:26:00;7.40;99.90
59067;DHT22;44854;50.838;4.438;2024-02-26T07:28:26;7.30;99.90
59067;DHT22;44854;50.838;4.438;2024-02-26T07:30:52;7.30;99.90
59067;DHT22;44854;50.838;4.438;2024-02-26T07:33:17;7.40;99.90
59067;DHT22;44854;50.838;4.438;2024-02-26T07:35:43;7.40;99.90
59067;DHT22;44854;50.838;4.438;2024-02-26T07:38:09;7.40;99.90
59067;DHT22;44854;50.838;4.438;2024-02-26T07:40:34;7.30;99.90
59067;DHT22;44854;50.838;4.438;2024-02-26T07:43:00;7.30;99.90
59067;DHT22;44854;50.838;4.438;2024-02-26T07:45:26;7.30;99.90
59067;DHT22;44854;50.838;4.438;2024-02-26T07:47:51;7.40;99.90
59067;DHT22;44854;50.838;4.438;2024-02-26T07:50:18;7.40;99.90
59067;DHT22;44854;50.838;4.438;2024-02-26T07:52:44;7.50;99.90
59067;DHT22;44854;50.838;4.438;2024-02-26T07:55:10;7.40;99.90
59067;DHT22;44854;50.838;4.438;2024-02-26T07:57:36;7.50;99.90
59067;DHT22;44854;50.838;4.438;2024-02-26T08:00:02;7.50;99.90
59067;DHT22;44854;50.838;4.438;2024-02-26T08:02:28;7.40;99.90
59067;DHT22;44854;50.838;4.438;2024-02-26T08:04:54;7.50;99.90
59067;DHT22;44854;50.838;4.438;2024-02-26T08:07:20;7.50;99.90
59067;DHT22;44854;50.838;4.438;2024-02-26T08:09:47;7.30;99.90
59067;DHT22;44854;50.838;4.438;2024-02-26T08:12:12;7.40;99.90
59067;DHT22;44854;50.838;4.438;2024-02-26T08:14:38;7.40;99.90
59067;DHT22;44854;50.838;4.438;2024-02-26T08:17:04;7.30;99.90
59067;DHT22;44854;50.838;4.438;2024-02-26T08:19:30;7.40;99.90
59067;DHT22;44854;50.838;4.438;2024-02-26T08:21:55;7.50;99.90
59067;DHT22;44854;50.838;4.438;2024-02-26T08:24:22;7.50;99.90
59067;DHT22;44854;50.838;4.438;2024-02-26T08:26:48;7.40;99.90
59067;DHT22;44854;50.838;4.438;2024-02-26T08:29:14;7.40;99.90
59067;DHT22;44854;50.838;4.438;2024-02-26T08:31:40;7.30;99.90
59067;DHT22;44854;50.838;4.438;2024-02-26T08:34:07;7.30;99.90
59067;DHT22;44854;50.838;4.438;2024-02-26T08:36:33;7.30;99.90
59067;DHT22;44854;50.838;4.438;2024-02-26T08:38:59;7.40;99.90
59067;DHT22;44854;50.838;4.438;2024-02-26T08:41:25;7.40;99.90
59067;DHT22;44854;50.838;4.438;2024-02-26T08:43:51;7.40;99.90
59067;DHT22;44854;50.838;4.438;2024-02-26T08:46:17;7.40;99.90
59067;DHT22;44854;50.838;4.438;2024-02-26T08:48:43;7.40;99.90
59067;DHT22;44854;50.838;4.438;2024-02-26T08:51:09;7.40;99.90
59067;DHT22;44854;50.838;4.438;2024-02-26T08:53:35;7.40;99.90
59067;DHT22;44854;50.838;4.438;2024-02-26T08:56:01;7.30;99.90
59067;DHT22;44854;50.838;4.438;2024-02-26T08:58:30;7.40;99.90
59067;DHT22;44854;50.838;4.438;2024-02-26T09:00:56;7.40;99.90
59067;DHT22;44854;50.838;4.438;2024-02-26T09:03:22;7.40;99.90
59067;DHT22;44854;50.838;4.438;2024-02-26T09:05:48;7.60;99.90
59067;DHT22;44854;50.838;4.438;2024-02-26T09:08:14;7.50;99.90
59067;DHT22;44854;50.838;4.438;2024-02-26T09:10:40;7.50;99.90
59067;DHT22;44854;50.838;4.438;2024-02-26T09:13:06;7.40;99.90
59067;DHT22;44854;50.838;4.438;2024-02-26T09:15:32;7.40;99.90
59067;DHT22;44854;50.838;4.438;2024-02-26T09:17:59;7.40;99.90
59067;DHT22;44854;50.838;4.438;2024-02-26T09:20:24;7.30;99.90
59067;DHT22;44854;50.838;4.438;2024-02-26T09:22:50;7.30;99.90
59067;DHT22;44854;50.838;4.438;2024-02-26T09:25:17;7.30;99.90
59067;DHT22;44854;50.838;4.438;2024-02-26T09:27:43;7.40;99.90
59067;DHT22;44854;50.838;4.438;2024-02-26T09:30:10;7.40;99.90
59067;DHT22;44854;50.838;4.438;2024-02-26T09:32:37;7.30;99.90
59067;DHT22;44854;50.838;4.438;2024-02-26T09:35:02;7.40;99.90
59067;DHT22;44854;50.838;4.438;2024-02-26T09:37:28;7.40;99.90
59067;DHT22;44854;50.838;4.438;2024-02-26T09:39:54;7.30;99.90
59067;DHT22;44854;50.838;4.438;2024-02-26T09:42:20;7.30;99.90
59067;DHT22;44854;50.838;4.438;2024-02-26T09:44:50;7.20;99.90
59067;DHT22;44854;50.838;4.438;2024-02-26T09:47:17;7.30;99.90
59067;DHT22;44854;50.838;4.438;2024-02-26T09:49:43;7.30;99.90
59067;DHT22;44854;50.838;4.438;2024-02-26T09:52:09;7.30;99.90
59067;DHT22;44854;50.838;4.438;2024-02-26T09:54:35;7.20;99.90
59067;DHT22;44854;50.838;4.438;2024-02-26T09:57:03;7.30;99.90
59067;DHT22;44854;50.838;4.438;2024-02-26T09:59:39;7.20;99.90
59067;DHT22;44854;50.838;4.438;2024-02-26T10:02:18;7.20;99.90
59067;DHT22;44854;50.838;4.438;2024-02-26T10:04:47;7.30;99.90
59067;DHT22;44854;50.838;4.438;2024-02-26T10:07:13;7.20;99.90
59067;DHT22;44854;50.838;4.438;2024-02-26T10:09:39;7.20;99.90
59067;DHT22;44854;50.838;4.438;2024-02-26T10:12:08;7.20;99.90
59067;DHT22;44854;50.838;4.438;2024-02-26T10:14:34;7.30;99.90
59067;DHT22;44854;50.838;4.438;2024-02-26T10:17:01;7.40;99.90
59067;DHT22;44854;50.838;4.438;2024-02-26T10:19:28;7.40;99.90
59067;DHT22;44854;50.838;4.438;2024-02-26T10:21:58;7.30;99.90
59067;DHT22;44854;50.838;4.438;2024-02-26T10:24:28;7.30;99.90
59067;DHT22;44854;50.838;4.438;2024-02-26T10:26:55;7.40;99.90
59067;DHT22;44854;50.838;4.438;2024-02-26T10:29:24;7.40;99.90
59067;DHT22;44854;50.838;4.438;2024-02-26T10:31:51;7.50;99.90
59067;DHT22;44854;50.838;4.438;2024-02-26T10:34:18;7.50;99.90
59067;DHT22;44854;50.838;4.438;2024-02-26T10:36:43;7.50;99.90
59067;DHT22;44854;50.838;4.438;2024-02-26T10:39:12;7.40;99.90
59067;DHT22;44854;50.838;4.438;2024-02-26T10:41:39;7.40;99.90
59067;DHT22;44854;50.838;4.438;2024-02-26T10:44:05;7.40;99.90
59067;DHT22;44854;50.838;4.438;2024-02-26T10:46:31;7.40;99.90
59067;DHT22;44854;50.838;4.438;2024-02-26T10:48:57;7.40;99.90
59067;DHT22;44854;50.838;4.438;2024-02-26T10:51:27;7.40;99.90
59067;DHT22;44854;50.838;4.438;2024-02-26T10:53:56;7.20;99.90
59067;DHT22;44854;50.838;4.438;2024-02-26T10:56:28;7.20;99.90
59067;DHT22;44854;50.838;4.438;2024-02-26T10:58:56;7.20;99.90
59067;DHT22;44854;50.838;4.438;2024-02-26T11:01:24;7.20;99.90
59067;DHT22;44854;50.838;4.438;2024-02-26T11:03:52;7.20;99.90
59067;DHT22;44854;50.838;4.438;2024-02-26T11:06:20;7.20;99.90
59067;DHT22;44854;50.838;4.438;2024-02-26T11:08:53;7.20;99.90
59067;DHT22;44854;50.838;4.438;2024-02-26T11:11:20;7.20;99.90
59067;DHT22;44854;50.838;4.438;2024-02-26T11:13:47;7.20;99.90
59067;DHT22;44854;50.838;4.438;2024-02-26T11:16:21;7.10;99.90
59067;DHT22;44854;50.838;4.438;2024-02-26T11:18:49;7.20;99.90
59067;DHT22;44854;50.838;4.438;2024-02-26T11:21:18;7.10;99.90
59067;DHT22;44854;50.838;4.438;2024-02-26T11:23:47;7.00;99.90
59067;DHT22;44854;50.838;4.438;2024-02-26T11:26:15;7.00;99.90
59067;DHT22;44854;50.838;4.438;2024-02-26T11:28:42;7.00;99.90
59067;DHT22;44854;50.838;4.438;2024-02-26T11:31:09;7.10;99.90
59067;DHT22;44854;50.838;4.438;2024-02-26T11:33:35;7.10;99.90
59067;DHT22;44854;50.838;4.438;2024-02-26T11:36:07;7.10;99.90
59067;DHT22;44854;50.838;4.438;2024-02-26T11:38:34;7.10;99.90
59067;DHT22;44854;50.838;4.438;2024-02-26T11:41:01;7.00;99.90
59067;DHT22;44854;50.838;4.438;2024-02-26T11:43:52;7.10;99.90
59067;DHT22;44854;50.838;4.438;2024-02-26T11:46:30;7.00;99.90
59067;DHT22;44854;50.838;4.438;2024-02-26T11:49:02;7.10;99.90
59067;DHT22;44854;50.838;4.438;2024-02-26T11:51:34;7.10;99.90
59067;DHT22;44854;50.838;4.438;2024-02-26T11:54:00;7.10;99.90
59067;DHT22;44854;50.838;4.438;2024-02-26T11:56:26;7.30;99.90
59067;DHT22;44854;50.838;4.438;2024-02-26T11:59:09;7.30;99.90
59067;DHT22;44854;50.838;4.438;2024-02-26T12:01:45;7.10;99.90
59067;DHT22;44854;50.838;4.438;2024-02-26T12:04:26;7.20;99.90
59067;DHT22;44854;50.838;4.438;2024-02-26T12:07:01;7.10;99.90
59067;DHT22;44854;50.838;4.438;2024-02-26T12:12:19;6.90;99.90
59067;DHT22;44854;50.838;4.438;2024-02-26T12:14:53;7.00;99.90
59067;DHT22;44854;50.838;4.438;2024-02-26T12:17:22;7.10;99.90
59067;DHT22;44854;50.838;4.438;2024-02-26T12:19:48;7.20;99.90
59067;DHT22;44854;50.838;4.438;2024-02-26T12:22:15;7.00;99.90
59067;DHT22;44854;50.838;4.438;2024-02-26T12:24:41;7.00;99.90
59067;DHT22;44854;50.838;4.438;2024-02-26T12:27:07;7.20;99.90
59067;DHT22;44854;50.838;4.438;2024-02-26T12:29:33;7.20;99.90
59067;DHT22;44854;50.838;4.438;2024-02-26T12:32:01;7.10;99.90
59067;DHT22;44854;50.838;4.438;2024-02-26T12:34:27;7.20;99.90
59067;DHT22;44854;50.838;4.438;2024-02-26T12:36:54;7.10;99.90
59067;DHT22;44854;50.838;4.438;2024-02-26T12:39:21;7.20;99.90
59067;DHT22;44854;50.838;4.438;2024-02-26T12:41:47;7.20;99.90
59067;DHT22;44854;50.838;4.438;2024-02-26T12:44:24;7.10;99.90
59067;DHT22;44854;50.838;4.438;2024-02-26T12:46:51;7.10;99.90
59067;DHT22;44854;50.838;4.438;2024-02-26T12:49:17;7.10;99.90
59067;DHT22;44854;50.838;4.438;2024-02-26T12:51:44;7.10;99.90
59067;DHT22;44854;50.838;4.438;2024-02-26T12:54:11;7.20;99.90
59067;DHT22;44854;50.838;4.438;2024-02-26T12:56:39;7.20;99.90
59067;DHT22;44854;50.838;4.438;2024-02-26T12:59:05;7.20;99.90
59067;DHT22;44854;50.838;4.438;2024-02-26T13:01:31;7.10;99.90
59067;DHT22;44854;50.838;4.438;2024-02-26T13:03:57;7.10;99.90
59067;DHT22;44854;50.838;4.438;2024-02-26T13:06:24;7.20;99.90
59067;DHT22;44854;50.838;4.438;2024-02-26T13:08:49;7.20;99.90
59067;DHT22;44854;50.838;4.438;2024-02-26T13:11:22;7.30;99.90
59067;DHT22;44854;50.838;4.438;2024-02-26T13:13:48;7.20;99.90
59067;DHT22;44854;50.838;4.438;2024-02-26T13:16:15;7.20;99.90
59067;DHT22;44854;50.838;4.438;2024-02-26T13:18:41;7.10;99.90
59067;DHT22;44854;50.838;4.438;2024-02-26T13:23:34;7.10;99.90
59067;DHT22;44854;50.838;4.438;2024-02-26T13:26:00;7.00;99.90
59067;DHT22;44854;50.838;4.438;2024-02-26T13:28:25;7.10;99.90
59067;DHT22;44854;50.838;4.438;2024-02-26T13:30:57;7.00;99.90
59067;DHT22;44854;50.838;4.438;2024-02-26T13:33:26;7.00;99.90
59067;DHT22;44854;50.838;4.438;2024-02-26T13:35:52;7.00;99.90
59067;DHT22;44854;50.838;4.438;2024-02-26T13:38:18;7.00;99.90
59067;DHT22;44854;50.838;4.438;2024-02-26T13:40:44;7.10;99.90
59067;DHT22;44854;50.838;4.438;2024-02-26T13:43:10;7.10;99.90
59067;DHT22;44854;50.838;4.438;2024-02-26T13:45:37;7.20;99.90
59067;DHT22;44854;50.838;4.438;2024-02-26T13:48:05;7.10;99.90
59067;DHT22;44854;50.838;4.438;2024-02-26T13:50:31;7.10;99.90
59067;DHT22;44854;50.838;4.438;2024-02-26T13:52:57;7.00;99.90
59067;DHT22;44854;50.838;4.438;2024-02-26T13:55:25;7.00;99.90
59067;DHT22;44854;50.838;4.438;2024-02-26T13:57:55;6.90;99.90
59067;DHT22;44854;50.838;4.438;2024-02-26T14:00:22;7.00;99.90
59067;DHT22;44854;50.838;4.438;2024-02-26T14:02:48;7.10;99.90
59067;DHT22;44854;50.838;4.438;2024-02-26T14:05:14;7.10;99.90
59067;DHT22;44854;50.838;4.438;2024-02-26T14:07:40;7.20;99.90
59067;DHT22;44854;50.838;4.438;2024-02-26T14:10:06;7.30;99.90
59067;DHT22;44854;50.838;4.438;2024-02-26T14:12:32;7.30;99.90
59067;DHT22;44854;50.838;4.438;2024-02-26T14:14:58;7.40;99.90
59067;DHT22;44854;50.838;4.438;2024-02-26T14:17:26;7.30;99.90
59067;DHT22;44854;50.838;4.438;2024-02-26T14:19:52;7.40;99.90
59067;DHT22;44854;50.838;4.438;2024-02-26T14:22:17;7.20;99.90
59067;DHT22;44854;50.838;4.438;2024-02-26T14:24:43;7.20;99.90
59067;DHT22;44854;50.838;4.438;2024-02-26T14:27:11;7.20;99.90
59067;DHT22;44854;50.838;4.438;2024-02-26T14:29:41;7.10;99.90
59067;DHT22;44854;50.838;4.438;2024-02-26T14:32:11;7.10;99.90
59067;DHT22;44854;50.838;4.438;2024-02-26T14:34:37;7.20;99.90
59067;DHT22;44854;50.838;4.438;2024-02-26T14:37:03;7.20;99.90
59067;DHT22;44854;50.838;4.438;2024-02-26T14:39:31;7.10;99.90
59067;DHT22;44854;50.838;4.438;2024-02-26T14:41:57;7.20;99.90
59067;DHT22;44854;50.838;4.438;2024-02-26T14:44:23;7.20;99.90
59067;DHT22;44854;50.838;4.438;2024-02-26T14:46:50;7.30;99.90
59067;DHT22;44854;50.838;4.438;2024-02-26T14:49:16;7.10;99.90
59067;DHT22;44854;50.838;4.438;2024-02-26T14:51:43;7.20;99.90
59067;DHT22;44854;50.838;4.438;2024-02-26T14:54:11;7.30;99.90
59067;DHT22;44854;50.838;4.438;2024-02-26T14:56:37;7.30;99.90
59067;DHT22;44854;50.838;4.438;2024-02-26T14:59:03;7.40;99.90
59067;DHT22;44854;50.838;4.438;2024-02-26T15:01:28;7.30;99.90
59067;DHT22;44854;50.838;4.438;2024-02-26T15:03:54;7.30;99.90
59067;DHT22;44854;50.838;4.438;2024-02-26T15:06:20;7.30;99.90
59067;DHT22;44854;50.838;4.438;2024-02-26T15:08:47;7.40;99.90
59067;DHT22;44854;50.838;4.438;2024-02-26T15:11:13;7.40;99.90
59067;DHT22;44854;50.838;4.438;2024-02-26T15:13:38;7.30;99.90
59067;DHT22;44854;50.838;4.438;2024-02-26T15:16:05;7.30;99.90
59067;DHT22;44854;50.838;4.438;2024-02-26T15:18:31;7.40;99.90
59067;DHT22;44854;50.838;4.438;2024-02-26T15:20:57;7.30;99.90
59067;DHT22;44854;50.838;4.438;2024-02-26T15:23:25;7.30;99.90
59067;DHT22;44854;50.838;4.438;2024-02-26T15:25:53;7.20;99.90
59067;DHT22;44854;50.838;4.438;2024-02-26T15:28:19;7.20;99.90
59067;DHT22;44854;50.838;4.438;2024-02-26T15:30:44;7.10;99.90
59067;DHT22;44854;50.838;4.438;2024-02-26T15:33:10;7.10;99.90
59067;DHT22;44854;50.838;4.438;2024-02-26T15:35:37;7.20;99.90
59067;DHT22;44854;50.838;4.438;2024-02-26T15:38:03;7.30;99.90
59067;DHT22;44854;50.838;4.438;2024-02-26T15:40:29;7.20;99.90
59067;DHT22;44854;50.838;4.438;2024-02-26T15:42:55;7.20;99.90
59067;DHT22;44854;50.838;4.438;2024-02-26T15:45:21;7.20;99.90
59067;DHT22;44854;50.838;4.438;2024-02-26T15:47:46;7.20;99.90